createdAt,value
2023-05-04T00:02:02.366Z,26.20
2023-05-04T00:04:47.667Z,17.33
2023-05-04T00:07:32.992Z,25.85
2023-05-04T00:10:18.275Z,23.77
2023-05-04T00:13:03.515Z,32.70
2023-05-04T00:15:48.411Z,24.67
2023-05-04T00:18:33.822Z,26.15
2023-05-04T00:21:19.026Z,27.92
2023-05-04T00:24:04.305Z,23.38
2023-05-04T00:26:49.519Z,21.92
2023-05-04T00:29:34.514Z,23.10
2023-05-04T00:32:19.728Z,21.58
2023-05-04T00:35:05.348Z,23.83
2023-05-04T00:37:50.383Z,30.30
2023-05-04T00:40:35.843Z,25.42
2023-05-04T00:43:21.184Z,26.95
2023-05-04T00:46:06.581Z,20.33
2023-05-04T00:48:52.672Z,27.75
2023-05-04T00:51:37.964Z,27.95
2023-05-04T00:54:23.272Z,27.52
2023-05-04T00:57:08.749Z,28.20
2023-05-04T00:59:54.138Z,25.85
2023-05-04T01:02:41.193Z,25.42
2023-05-04T01:05:31.418Z,26.13
2023-05-04T01:08:21.296Z,22.77
2023-05-04T01:14:15.268Z,25.40
2023-05-04T01:17:02.738Z,28.75
2023-05-04T01:19:48.109Z,31.27
2023-05-04T01:22:33.281Z,28.40
2023-05-04T01:25:19.023Z,29.88
2023-05-04T01:28:21.399Z,22.70
2023-05-04T01:31:09.508Z,30.73
2023-05-04T01:33:56.088Z,29.77
2023-05-04T01:36:41.881Z,26.80
2023-05-04T01:39:27.700Z,27.35
2023-05-04T01:42:12.712Z,24.10
2023-05-04T01:44:57.837Z,27.38
2023-05-04T01:47:43.249Z,25.92
2023-05-04T01:50:28.547Z,26.58
2023-05-04T01:53:13.854Z,29.42
2023-05-04T01:55:58.882Z,33.20
2023-05-04T01:58:44.185Z,31.15
2023-05-04T02:01:29.433Z,34.63
2023-05-04T02:04:14.443Z,25.55
2023-05-04T02:06:59.630Z,29.88
2023-05-04T02:09:44.815Z,32.97
2023-05-04T02:12:29.805Z,32.92
2023-05-04T02:15:14.964Z,27.50
2023-05-04T02:18:00.386Z,28.70
2023-05-04T02:20:46.285Z,31.55
2023-05-04T02:23:31.452Z,28.55
2023-05-04T02:26:16.360Z,32.55
2023-05-04T02:29:03.231Z,28.35
2023-05-04T02:31:48.355Z,28.45
2023-05-04T02:34:35.244Z,36.88
2023-05-04T02:37:20.687Z,30.10
2023-05-04T02:40:06.934Z,28.55
2023-05-04T02:42:52.516Z,34.22
2023-05-04T02:45:37.918Z,27.70
2023-05-04T02:48:24.706Z,30.00
2023-05-04T02:51:09.984Z,27.30
2023-05-04T02:53:55.260Z,33.42
2023-05-04T02:56:40.118Z,36.47
2023-05-04T02:59:25.182Z,28.77
2023-05-04T03:02:10.179Z,31.40
2023-05-04T03:04:55.674Z,27.42
2023-05-04T03:07:40.913Z,33.38
2023-05-04T03:10:26.011Z,32.00
2023-05-04T03:13:11.436Z,33.72
2023-05-04T03:15:56.900Z,32.05
2023-05-04T03:18:57.454Z,31.10
2023-05-04T03:21:43.061Z,34.35
2023-05-04T03:24:28.397Z,31.63
2023-05-04T03:27:13.614Z,34.47
2023-05-04T03:29:58.915Z,35.53
2023-05-04T03:32:44.845Z,37.67
2023-05-04T03:35:30.044Z,34.55
2023-05-04T03:38:15.422Z,34.45
2023-05-04T03:41:00.630Z,31.50
2023-05-04T03:43:45.724Z,30.67
2023-05-04T03:46:31.375Z,37.55
2023-05-04T03:49:16.747Z,33.58
2023-05-04T03:52:02.019Z,33.35
2023-05-04T03:54:47.130Z,39.65
2023-05-04T03:57:32.374Z,30.27
2023-05-04T04:00:18.390Z,34.53
2023-05-04T04:03:03.958Z,34.58
2023-05-04T04:05:49.177Z,33.20
2023-05-04T04:08:34.152Z,29.60
2023-05-04T04:11:19.213Z,36.33
2023-05-04T04:14:04.371Z,29.80
2023-05-04T04:16:49.336Z,31.33
2023-05-04T04:19:34.302Z,30.83
2023-05-04T04:22:19.283Z,34.88
2023-05-04T04:25:04.643Z,35.83
2023-05-04T04:27:49.745Z,34.97
2023-05-04T04:30:35.056Z,30.88
2023-05-04T04:33:20.445Z,27.27
2023-05-04T04:36:06.013Z,32.42
2023-05-04T04:38:51.305Z,32.50
2023-05-04T04:41:36.928Z,32.50
2023-05-04T04:44:21.882Z,39.92
2023-05-04T04:47:07.378Z,34.22
2023-05-04T04:49:52.954Z,30.98
2023-05-04T04:52:38.398Z,34.15
2023-05-04T04:55:25.797Z,33.70
2023-05-04T04:58:11.030Z,35.55
2023-05-04T05:00:58.291Z,31.33
2023-05-04T05:03:47.142Z,34.60
2023-05-04T05:06:32.102Z,28.65
2023-05-04T05:09:17.311Z,39.35
2023-05-04T05:12:02.619Z,33.00
2023-05-04T05:14:48.079Z,28.45
2023-05-04T05:17:35.477Z,37.47
2023-05-04T05:20:21.345Z,31.48
2023-05-04T05:23:06.530Z,34.78
2023-05-04T05:25:51.601Z,34.13
2023-05-04T05:28:37.187Z,30.45
2023-05-04T05:31:22.491Z,31.58
2023-05-04T05:34:08.022Z,32.40
2023-05-04T05:36:53.357Z,33.85
2023-05-04T05:39:38.578Z,30.67
2023-05-04T05:42:23.689Z,33.38
2023-05-04T05:45:12.092Z,37.75
2023-05-04T05:47:57.537Z,29.55
2023-05-04T05:50:42.771Z,35.25
2023-05-04T05:53:28.080Z,29.33
2023-05-04T05:56:14.728Z,29.00
2023-05-04T05:58:59.871Z,33.22
2023-05-04T06:01:45.143Z,34.72
2023-05-04T06:04:30.376Z,36.35
2023-05-04T06:07:15.913Z,35.33
2023-05-04T06:10:01.228Z,34.45
2023-05-04T06:12:46.422Z,30.40
2023-05-04T06:15:31.561Z,32.10
2023-05-04T06:18:16.811Z,30.83
2023-05-04T06:21:02.085Z,30.05
2023-05-04T06:23:47.686Z,32.67
2023-05-04T06:26:32.764Z,32.78
2023-05-04T06:29:17.925Z,37.28
2023-05-04T06:32:03.091Z,33.97
2023-05-04T06:34:48.203Z,36.08
2023-05-04T06:37:33.218Z,33.85
2023-05-04T06:40:18.450Z,34.65
2023-05-04T06:43:03.757Z,34.50
2023-05-04T06:45:48.768Z,31.77
2023-05-04T06:48:34.102Z,30.88
2023-05-04T06:51:18.897Z,26.80
2023-05-04T06:54:04.356Z,34.33
2023-05-04T06:56:49.540Z,29.13
2023-05-04T06:59:34.493Z,25.00
2023-05-04T07:02:19.467Z,30.00
2023-05-04T07:05:05.138Z,33.03
2023-05-04T07:07:51.901Z,26.77
2023-05-04T07:10:37.116Z,26.23
2023-05-04T07:13:28.883Z,26.50
2023-05-04T07:16:13.851Z,23.65
2023-05-04T07:18:59.178Z,27.13
2023-05-04T07:21:44.045Z,23.92
2023-05-04T07:24:30.305Z,25.63
2023-05-04T07:27:15.410Z,25.08
2023-05-04T07:30:01.383Z,25.38
2023-05-04T07:32:47.233Z,27.60
2023-05-04T07:35:32.102Z,23.38
2023-05-04T07:38:17.095Z,25.77
2023-05-04T07:41:02.057Z,23.25
2023-05-04T07:43:47.288Z,27.85
2023-05-04T07:46:32.260Z,19.92
2023-05-04T07:49:17.350Z,18.80
2023-05-04T07:52:04.079Z,22.63
2023-05-04T07:54:53.181Z,21.27
2023-05-04T07:57:38.181Z,21.00
2023-05-04T08:00:23.537Z,24.73
2023-05-04T08:03:08.934Z,23.50
2023-05-04T08:05:53.974Z,19.10
2023-05-04T08:08:38.862Z,27.23
2023-05-04T08:11:23.850Z,16.38
2023-05-04T08:14:09.065Z,22.52
2023-05-04T08:16:54.416Z,16.13
2023-05-04T08:19:39.601Z,15.30
2023-05-04T08:22:24.950Z,17.77
2023-05-04T08:25:10.255Z,17.15
2023-05-04T08:27:55.252Z,17.98
2023-05-04T08:30:40.446Z,16.73
2023-05-04T08:33:25.385Z,14.77
2023-05-04T08:36:10.753Z,13.55
2023-05-04T08:38:56.257Z,21.77
2023-05-04T08:41:41.755Z,17.42
2023-05-04T08:44:26.732Z,14.48
2023-05-04T08:47:12.322Z,18.90
2023-05-04T08:49:57.482Z,20.95
2023-05-04T08:52:46.632Z,18.88
2023-05-04T08:55:33.950Z,15.97
2023-05-04T08:58:22.021Z,15.15
2023-05-04T09:01:08.175Z,17.30
2023-05-04T09:03:54.095Z,15.73
2023-05-04T09:06:39.331Z,17.58
2023-05-04T09:09:28.738Z,14.68
2023-05-04T09:12:14.337Z,15.38
2023-05-04T09:15:02.289Z,14.95
2023-05-04T09:18:09.830Z,14.57
2023-05-04T09:20:55.004Z,13.43
2023-05-04T09:23:51.220Z,13.60
2023-05-04T09:26:37.511Z,16.70
2023-05-04T09:29:25.479Z,16.20
2023-05-04T09:32:12.507Z,13.57
2023-05-04T09:34:57.560Z,17.92
2023-05-04T09:37:45.118Z,16.38
2023-05-04T09:40:40.672Z,13.10
2023-05-04T09:43:25.584Z,12.10
2023-05-04T09:46:20.030Z,14.65
2023-05-04T09:49:05.411Z,15.80
2023-05-04T09:51:50.700Z,18.85
2023-05-04T09:54:37.787Z,12.30
2023-05-04T09:57:23.527Z,17.48
2023-05-04T10:00:12.422Z,14.80
2023-05-04T10:02:58.308Z,11.07
2023-05-04T10:05:43.676Z,11.43
2023-05-04T10:08:29.143Z,11.43
2023-05-04T10:11:16.045Z,13.35
2023-05-04T10:14:01.418Z,14.15
2023-05-04T10:17:03.494Z,10.35
2023-05-04T10:20:07.374Z,14.20
2023-05-04T10:23:23.709Z,15.45
2023-05-04T10:26:22.386Z,15.45
2023-05-04T10:29:33.150Z,12.45
2023-05-04T10:32:23.198Z,14.45
2023-05-04T10:35:10.086Z,15.57
2023-05-04T10:37:56.579Z,13.63
2023-05-04T10:40:42.049Z,11.15
2023-05-04T10:43:29.173Z,12.35
2023-05-04T10:46:22.248Z,17.27
2023-05-04T10:49:17.777Z,10.60
2023-05-04T10:52:11.535Z,12.30
2023-05-04T10:55:01.650Z,15.95
2023-05-04T10:57:51.682Z,13.63
2023-05-04T11:00:38.823Z,12.27
2023-05-04T11:03:25.047Z,15.85
2023-05-04T11:06:24.002Z,12.65
2023-05-04T11:09:12.327Z,15.07
2023-05-04T11:11:57.516Z,12.10
2023-05-04T11:14:43.486Z,18.98
2023-05-04T11:17:28.915Z,11.43
2023-05-04T11:20:26.121Z,16.63
2023-05-04T11:23:16.059Z,17.73
2023-05-04T11:26:06.693Z,15.35
2023-05-04T11:28:53.200Z,13.27
2023-05-04T11:31:38.485Z,14.35
2023-05-04T11:34:24.046Z,9.77
2023-05-04T11:37:09.603Z,12.38
2023-05-04T11:39:54.955Z,15.18
2023-05-04T11:42:44.035Z,13.38
2023-05-04T11:45:36.610Z,13.25
2023-05-04T11:48:22.079Z,14.95
2023-05-04T11:51:07.419Z,12.75
2023-05-04T11:53:53.691Z,15.80
2023-05-04T11:56:42.595Z,12.35
2023-05-04T11:59:27.626Z,12.45
2023-05-04T12:02:17.298Z,19.08
2023-05-04T12:05:03.292Z,15.40
2023-05-04T12:07:48.858Z,12.60
2023-05-04T12:10:35.143Z,17.33
2023-05-04T12:13:20.684Z,16.83
2023-05-04T12:16:16.366Z,14.68
2023-05-04T12:19:06.987Z,16.70
2023-05-04T12:21:58.312Z,14.82
2023-05-04T12:24:43.517Z,15.52
2023-05-04T12:27:28.910Z,17.80
2023-05-04T12:30:14.389Z,14.70
2023-05-04T12:32:59.604Z,14.27
2023-05-04T12:35:45.018Z,17.60
2023-05-04T12:38:30.510Z,12.60
2023-05-04T12:41:15.569Z,11.35
2023-05-04T12:44:01.399Z,12.07
2023-05-04T12:46:46.283Z,10.82
2023-05-04T12:49:31.221Z,14.35
2023-05-04T12:52:16.398Z,10.25
2023-05-04T12:55:01.705Z,14.27
2023-05-04T12:57:46.818Z,20.33
2023-05-04T13:00:37.649Z,16.70
2023-05-04T13:03:23.542Z,14.80
2023-05-04T13:06:08.982Z,20.90
2023-05-04T13:08:54.197Z,16.70
2023-05-04T13:11:39.395Z,19.42
2023-05-04T13:14:24.294Z,17.15
2023-05-04T13:17:09.339Z,15.32
2023-05-04T13:19:54.684Z,15.85
2023-05-04T13:22:40.148Z,16.90
2023-05-04T13:25:25.532Z,13.50
2023-05-04T13:28:10.777Z,25.48
2023-05-04T13:30:56.286Z,25.40
2023-05-04T13:33:41.569Z,21.05
2023-05-04T13:36:26.637Z,19.27
2023-05-04T13:39:11.850Z,20.77
2023-05-04T13:41:57.068Z,17.05
2023-05-04T13:44:45.005Z,14.85
2023-05-04T13:47:29.922Z,15.50
2023-05-04T13:50:15.164Z,14.05
2023-05-04T13:53:00.429Z,20.15
2023-05-04T13:55:45.512Z,17.00
2023-05-04T13:58:30.840Z,18.52
2023-05-04T14:01:16.202Z,15.88
2023-05-04T14:04:01.117Z,18.75
2023-05-04T14:06:50.035Z,17.60
2023-05-04T14:09:34.968Z,14.35
2023-05-04T14:12:22.226Z,20.08
2023-05-04T14:15:08.266Z,14.40
2023-05-04T14:17:53.400Z,16.83
2023-05-04T14:20:38.429Z,14.68
2023-05-04T14:23:23.708Z,10.65
2023-05-04T14:26:18.275Z,10.92
2023-05-04T14:29:03.653Z,14.02
2023-05-04T14:31:48.667Z,11.75
2023-05-04T14:34:33.764Z,8.07
2023-05-04T14:37:18.972Z,11.25
2023-05-04T14:40:11.543Z,11.30
2023-05-04T14:42:59.628Z,11.43
2023-05-04T14:45:44.783Z,12.57
2023-05-04T14:48:30.002Z,11.10
2023-05-04T14:51:28.046Z,9.70
2023-05-04T14:54:13.559Z,5.68
2023-05-04T14:56:59.740Z,5.97
2023-05-04T14:59:44.748Z,6.57
2023-05-04T15:02:29.798Z,5.75
2023-05-04T15:05:15.841Z,8.00
2023-05-04T15:08:01.803Z,4.72
2023-05-04T15:10:46.771Z,7.13
2023-05-04T15:13:32.366Z,6.28
2023-05-04T15:16:19.423Z,8.13
2023-05-04T15:19:05.366Z,6.13
2023-05-04T15:21:50.674Z,5.97
2023-05-04T15:24:36.093Z,8.77
2023-05-04T15:27:21.748Z,8.43
2023-05-04T15:30:08.847Z,9.55
2023-05-04T15:32:54.458Z,7.45
2023-05-04T15:35:39.618Z,12.07
2023-05-04T15:38:25.567Z,5.10
2023-05-04T15:41:10.792Z,13.38
2023-05-04T15:43:56.238Z,7.00
2023-05-04T15:46:41.475Z,6.30
2023-05-04T15:49:26.914Z,7.20
2023-05-04T15:52:12.100Z,11.10
2023-05-04T15:55:02.310Z,6.53
2023-05-04T15:57:54.385Z,4.68
2023-05-04T16:00:39.840Z,6.70
2023-05-04T16:03:25.592Z,6.35
2023-05-04T16:06:11.710Z,3.47
2023-05-04T16:08:57.118Z,5.30
2023-05-04T16:11:43.828Z,9.90
2023-05-04T16:14:28.848Z,5.00
2023-05-04T16:17:13.955Z,13.38
2023-05-04T16:19:58.912Z,6.38
2023-05-04T16:22:43.881Z,8.90
2023-05-04T16:25:31.725Z,5.28
2023-05-04T16:28:16.832Z,5.70
2023-05-04T16:31:03.051Z,6.65
2023-05-04T16:33:48.194Z,4.75
2023-05-04T16:36:33.482Z,8.93
2023-05-04T16:39:19.039Z,5.45
2023-05-04T16:42:07.417Z,6.07
2023-05-04T16:44:52.768Z,5.57
2023-05-04T16:47:38.105Z,7.93
2023-05-04T16:50:23.778Z,4.32
2023-05-04T16:53:08.605Z,5.65
2023-05-04T16:55:53.861Z,4.40
2023-05-04T16:58:38.936Z,5.85
2023-05-04T17:01:23.932Z,4.45
2023-05-04T17:04:09.704Z,4.07
2023-05-04T17:06:55.578Z,6.63
2023-05-04T17:09:41.240Z,5.55
2023-05-04T17:12:26.893Z,7.28
2023-05-04T17:15:12.469Z,7.25
2023-05-04T17:17:57.713Z,6.50
2023-05-04T17:20:42.783Z,3.95
2023-05-04T17:23:28.056Z,11.50
2023-05-04T17:26:14.548Z,4.60
2023-05-04T17:28:59.879Z,4.07
2023-05-04T17:31:45.091Z,4.65
2023-05-04T17:34:30.149Z,8.25
2023-05-04T17:37:15.497Z,6.28
2023-05-04T17:40:00.832Z,3.72
2023-05-04T17:42:45.947Z,4.22
2023-05-04T17:45:30.924Z,5.60
2023-05-04T17:48:16.381Z,3.40
2023-05-04T17:51:01.657Z,3.42
2023-05-04T17:53:46.716Z,4.78
2023-05-04T17:56:31.904Z,3.03
2023-05-04T17:59:17.722Z,4.97
2023-05-04T18:02:03.234Z,2.70
2023-05-04T18:04:48.746Z,4.05
2023-05-04T18:07:33.761Z,2.97
2023-05-04T18:10:19.194Z,3.08
2023-05-04T18:13:05.025Z,3.50
2023-05-04T18:15:51.033Z,2.22
2023-05-04T18:18:36.272Z,3.08
2023-05-04T18:21:21.235Z,2.67
2023-05-04T18:24:07.200Z,2.47
2023-05-04T18:26:55.543Z,2.47
2023-05-04T18:29:40.992Z,2.03
2023-05-04T18:32:26.634Z,1.95
2023-05-04T18:35:12.107Z,3.70
2023-05-04T18:37:57.487Z,2.83
2023-05-04T18:40:43.039Z,2.65
2023-05-04T18:43:28.337Z,2.55
2023-05-04T18:46:13.653Z,4.05
2023-05-04T18:48:59.013Z,2.78
2023-05-04T18:51:44.101Z,2.97
2023-05-04T18:54:30.481Z,14.50
2023-05-04T18:57:15.721Z,2.97
2023-05-04T19:00:01.137Z,5.80
2023-05-04T19:02:46.466Z,6.97
2023-05-04T19:05:31.787Z,3.75
2023-05-04T19:08:17.022Z,3.85
2023-05-04T19:11:05.162Z,3.25
2023-05-04T19:13:50.188Z,3.72
2023-05-04T19:16:35.093Z,5.97
2023-05-04T19:19:20.170Z,2.83
2023-05-04T19:22:05.304Z,3.95
2023-05-04T19:24:51.531Z,5.30
2023-05-04T19:27:36.909Z,3.15
2023-05-04T19:30:22.102Z,4.72
2023-05-04T19:33:09.961Z,3.50
2023-05-04T19:35:56.480Z,5.38
2023-05-04T19:38:41.717Z,3.88
2023-05-04T19:41:27.000Z,6.53
2023-05-04T19:44:12.009Z,3.83
2023-05-04T19:46:57.238Z,5.90
2023-05-04T19:49:45.909Z,3.58
2023-05-04T19:52:31.285Z,6.05
2023-05-04T19:55:17.119Z,5.40
2023-05-04T19:58:02.302Z,6.43
2023-05-04T20:00:48.663Z,3.85
2023-05-04T20:03:34.232Z,2.72
2023-05-04T20:06:19.156Z,3.92
2023-05-04T20:09:04.354Z,5.18
2023-05-04T20:11:49.277Z,5.05
2023-05-04T20:14:34.362Z,4.35
2023-05-04T20:17:19.732Z,4.85
2023-05-04T20:20:06.191Z,4.78
2023-05-04T20:22:54.667Z,5.60
2023-05-04T20:25:39.842Z,5.63
2023-05-04T20:28:24.828Z,5.35
2023-05-04T20:31:09.879Z,5.60
2023-05-04T20:33:55.204Z,5.60
2023-05-04T20:36:40.712Z,5.07
2023-05-04T20:39:25.945Z,10.82
2023-05-04T20:42:10.884Z,7.20
2023-05-04T20:44:56.028Z,4.07
2023-05-04T20:47:42.630Z,7.07
2023-05-04T20:50:27.819Z,3.38
2023-05-04T20:53:13.198Z,5.93
2023-05-04T20:55:58.191Z,4.13
2023-05-04T20:58:43.345Z,7.82
2023-05-04T21:01:29.690Z,5.57
2023-05-04T21:04:15.069Z,5.47
2023-05-04T21:07:00.378Z,8.60
2023-05-04T21:09:45.745Z,4.18
2023-05-04T21:12:31.364Z,6.47
2023-05-04T21:15:16.820Z,2.95
2023-05-04T21:18:01.887Z,4.85
2023-05-04T21:20:47.545Z,4.70
2023-05-04T21:23:32.778Z,4.22
2023-05-04T21:26:17.921Z,3.65
2023-05-04T21:29:03.119Z,5.18
2023-05-04T21:31:48.149Z,4.40
2023-05-04T21:34:33.224Z,4.63
2023-05-04T21:37:18.829Z,5.15
2023-05-04T21:40:04.313Z,5.53
2023-05-04T21:42:49.327Z,3.40
2023-05-04T21:45:34.909Z,6.18
2023-05-04T21:48:19.967Z,5.13
2023-05-04T21:51:05.129Z,7.30
2023-05-04T21:53:50.415Z,9.75
2023-05-04T21:56:35.869Z,6.13
2023-05-04T21:59:20.910Z,4.50
2023-05-04T22:02:06.116Z,4.57
2023-05-04T22:04:51.437Z,2.78
2023-05-04T22:07:37.280Z,3.97
2023-05-04T22:10:22.868Z,2.67
2023-05-04T22:13:08.475Z,5.22
2023-05-04T22:15:53.981Z,2.65
2023-05-04T22:18:39.173Z,5.75
2023-05-04T22:21:24.195Z,5.95
2023-05-04T22:24:09.137Z,4.97
2023-05-04T22:26:54.199Z,7.40
2023-05-04T22:29:39.320Z,6.50
2023-05-04T22:32:24.364Z,4.20
2023-05-04T22:35:09.455Z,6.50
2023-05-04T22:37:54.656Z,8.02
2023-05-04T22:40:40.568Z,3.75
2023-05-04T22:43:26.184Z,7.78
2023-05-04T22:46:16.806Z,6.40
2023-05-04T22:49:01.860Z,4.35
2023-05-04T22:51:46.859Z,4.95
2023-05-04T22:54:31.998Z,3.95
2023-05-04T22:57:17.204Z,3.92
2023-05-04T23:00:05.227Z,6.60
2023-05-04T23:02:50.801Z,6.82
2023-05-04T23:05:36.408Z,5.45
2023-05-04T23:08:21.574Z,6.15
2023-05-04T23:11:06.687Z,10.25
2023-05-04T23:13:52.252Z,4.55
2023-05-04T23:16:37.931Z,4.20
2023-05-04T23:19:23.413Z,4.95
2023-05-04T23:22:08.282Z,9.75
2023-05-04T23:24:53.647Z,4.68
2023-05-04T23:27:39.501Z,7.78
2023-05-04T23:30:24.494Z,4.45
2023-05-04T23:33:09.542Z,7.03
2023-05-04T23:35:55.931Z,6.30
2023-05-04T23:38:40.948Z,9.20
2023-05-04T23:41:26.165Z,4.68
2023-05-04T23:44:11.300Z,5.22
2023-05-04T23:46:56.510Z,5.35
2023-05-04T23:49:41.699Z,8.02
2023-05-04T23:52:26.786Z,8.07
2023-05-04T23:55:11.621Z,7.47
2023-05-04T23:57:56.669Z,6.60
